createdAt,value
2022-09-03T00:01:55.928Z,89.50
2022-09-03T00:05:11.815Z,88.21
2022-09-03T00:08:04.090Z,91.25
2022-09-03T00:11:09.804Z,91.69
2022-09-03T00:13:56.895Z,90.18
2022-09-03T00:17:02.810Z,90.31
2022-09-03T00:19:59.793Z,89.49
2022-09-03T00:22:45.181Z,88.71
2022-09-03T00:25:37.787Z,89.88
2022-09-03T00:28:36.781Z,90.38
2022-09-03T00:31:27.529Z,90.17
2022-09-03T00:34:47.762Z,89.71
2022-09-03T00:37:38.202Z,89.18
2022-09-03T00:40:45.761Z,89.38
2022-09-03T00:43:58.642Z,89.61
2022-09-03T00:47:06.758Z,88.36
2022-09-03T00:50:09.791Z,88.57
2022-09-03T00:53:10.845Z,88.11
2022-09-03T00:56:24.743Z,87.93
2022-09-03T00:59:23.740Z,87.95
2022-09-03T01:02:39.853Z,87.90
2022-09-03T01:05:28.913Z,87.52
2022-09-03T01:08:22.822Z,88.19
2022-09-03T01:11:11.997Z,89.48
2022-09-03T01:14:16.731Z,89.66
2022-09-03T01:17:13.729Z,89.76
2022-09-03T01:20:08.118Z,90.38
2022-09-03T01:23:11.696Z,90.45
2022-09-03T01:26:36.741Z,90.20
2022-09-03T01:29:46.722Z,89.76
2022-09-03T01:32:46.705Z,89.33
2022-09-03T01:35:35.259Z,89.24
2022-09-03T01:38:43.713Z,87.91
2022-09-03T01:42:20.219Z,86.82
2022-09-03T01:45:16.729Z,86.35
2022-09-03T01:48:23.747Z,87.00
2022-09-03T01:51:35.861Z,86.36
2022-09-03T01:54:47.735Z,86.64
2022-09-03T01:57:56.791Z,86.53
2022-09-03T02:00:49.701Z,86.94
2022-09-03T02:03:40.840Z,86.65
2022-09-03T02:06:21.149Z,87.12
2022-09-03T02:09:07.690Z,87.70
2022-09-03T02:12:06.675Z,88.26
2022-09-03T02:14:48.430Z,88.55
2022-09-03T02:17:35.649Z,89.76
2022-09-03T02:20:26.657Z,90.30
2022-09-03T02:23:13.640Z,90.55
2022-09-03T02:26:09.682Z,91.70
2022-09-03T02:29:04.652Z,90.76
2022-09-03T02:31:45.357Z,90.80
2022-09-03T02:34:31.679Z,90.87
2022-09-03T02:37:21.650Z,90.24
2022-09-03T02:40:02.245Z,91.32
2022-09-03T02:42:48.638Z,90.60
2022-09-03T02:45:36.635Z,91.17
2022-09-03T02:48:29.638Z,90.52
2022-09-03T02:51:14.120Z,91.16
2022-09-03T02:54:01.614Z,91.05
2022-09-03T02:56:41.730Z,91.16
2022-09-03T02:59:29.619Z,90.20
2022-09-03T03:02:17.705Z,89.36
2022-09-03T03:05:04.607Z,88.32
2022-09-03T03:25:49.645Z,93.41
2022-09-03T03:28:34.069Z,92.86
2022-09-03T03:31:21.741Z,91.98
2022-09-03T03:34:09.657Z,91.19
2022-09-03T03:36:49.762Z,90.87
2022-09-03T03:39:36.657Z,89.67
2022-09-03T03:42:16.751Z,88.94
2022-09-03T03:45:03.695Z,87.99
2022-09-03T03:47:50.670Z,87.88
2022-09-03T03:50:37.626Z,87.96
2022-09-03T03:53:24.629Z,88.40
2022-09-03T03:56:08.025Z,87.79
2022-09-03T03:58:55.584Z,87.97
2022-09-03T04:01:42.651Z,89.10
2022-09-03T04:04:23.729Z,88.07
2022-09-03T04:07:10.615Z,87.16
2022-09-03T04:09:50.779Z,87.86
2022-09-03T04:12:37.623Z,87.24
2022-09-03T04:15:24.605Z,87.32
2022-09-03T04:18:05.521Z,87.28
2022-09-03T04:20:52.618Z,86.85
2022-09-03T04:23:51.555Z,86.44
2022-09-03T04:26:40.624Z,86.57
2022-09-03T04:29:22.118Z,86.81
2022-09-03T04:32:27.574Z,86.83
2022-09-03T04:35:14.586Z,86.50
2022-09-03T04:38:01.579Z,86.15
2022-09-03T04:40:41.684Z,86.65
2022-09-03T04:43:28.558Z,86.43
2022-09-03T04:46:18.650Z,85.58
2022-09-03T04:48:59.127Z,84.79
2022-09-03T04:51:45.571Z,84.99
2022-09-03T04:54:28.089Z,82.99
2022-09-03T04:57:16.559Z,83.07
2022-09-03T05:00:03.587Z,84.00
2022-09-03T05:02:43.637Z,82.91
2022-09-03T05:05:30.531Z,82.77
2022-09-03T05:08:11.339Z,82.33
2022-09-03T05:11:07.535Z,82.05
2022-09-03T05:13:54.567Z,82.59
2022-09-03T05:16:41.769Z,80.67
2022-09-03T05:19:21.560Z,80.58
2022-09-03T05:22:01.919Z,79.53
2022-09-03T05:24:48.500Z,79.27
2022-09-03T05:27:35.522Z,78.28
2022-09-03T05:30:16.632Z,77.93
2022-09-03T05:33:03.529Z,78.95
2022-09-03T05:35:43.630Z,79.55
2022-09-03T05:38:30.538Z,77.23
2022-09-03T05:41:21.510Z,76.82
2022-09-03T05:44:02.207Z,75.76
2022-09-03T05:46:48.510Z,74.44
2022-09-03T05:49:36.497Z,73.24
2022-09-03T05:52:16.864Z,73.88
2022-09-03T05:55:03.462Z,74.77
2022-09-03T05:57:50.520Z,73.35
2022-09-03T06:00:37.495Z,73.12
2022-09-03T06:03:17.731Z,75.04
2022-09-03T06:06:04.497Z,73.07
2022-09-03T06:08:45.053Z,72.79
2022-09-03T06:11:37.439Z,73.65
2022-09-03T06:14:26.467Z,75.41
2022-09-03T06:17:06.927Z,74.33
2022-09-03T06:19:53.452Z,75.67
2022-09-03T06:22:33.904Z,74.42
2022-09-03T06:25:21.443Z,75.03
2022-09-03T06:28:02.383Z,73.56
2022-09-03T06:30:49.507Z,72.55
2022-09-03T06:33:31.518Z,71.16
2022-09-03T06:36:20.456Z,68.90
2022-09-03T06:39:08.464Z,66.08
2022-09-03T06:41:51.919Z,60.05
2022-09-03T06:44:46.432Z,55.90
2022-09-03T06:47:26.569Z,55.81
2022-09-03T06:50:13.456Z,54.69
2022-09-03T06:52:58.558Z,51.61
2022-09-03T06:55:46.405Z,52.78
2022-09-03T06:58:26.651Z,49.98
2022-09-03T07:01:15.527Z,51.02
2022-09-03T07:04:01.067Z,49.81
2022-09-03T07:06:49.410Z,50.11
2022-09-03T07:09:29.518Z,48.81
2022-09-03T07:12:17.406Z,53.83
2022-09-03T07:15:04.399Z,55.17
2022-09-03T07:17:51.413Z,57.99
2022-09-03T07:20:38.493Z,61.53
2022-09-03T07:23:25.991Z,62.13
2022-09-03T07:26:15.419Z,61.97
2022-09-03T07:28:56.675Z,61.23
2022-09-03T07:31:48.448Z,62.46
2022-09-03T07:34:29.507Z,61.30
2022-09-03T07:37:16.390Z,57.92
2022-09-03T07:39:56.538Z,56.41
2022-09-03T07:42:46.416Z,56.57
2022-09-03T07:45:35.371Z,59.71
2022-09-03T07:48:17.885Z,58.71
2022-09-03T07:51:06.384Z,63.68
2022-09-03T07:53:48.822Z,65.54
2022-09-03T07:56:37.340Z,65.09
2022-09-03T07:59:18.231Z,64.16
2022-09-03T08:02:05.368Z,64.05
2022-09-03T08:04:46.064Z,58.00
2022-09-03T08:07:32.370Z,50.65
2022-09-03T08:10:19.348Z,47.22
2022-09-03T08:13:06.385Z,44.65
2022-09-03T08:16:03.433Z,47.70
2022-09-03T08:18:45.067Z,44.08
2022-09-03T08:21:34.332Z,43.02
2022-09-03T08:24:21.393Z,39.32
2022-09-03T08:27:01.871Z,38.10
2022-09-03T08:29:48.334Z,36.34
2022-09-03T08:32:28.746Z,39.98
2022-09-03T08:35:16.357Z,40.12
2022-09-03T08:38:03.344Z,35.60
2022-09-03T08:40:46.213Z,34.25
2022-09-03T08:43:33.303Z,35.93
2022-09-03T08:46:21.366Z,32.69
2022-09-03T08:49:08.341Z,37.09
2022-09-03T08:51:58.308Z,44.62
2022-09-03T08:54:45.291Z,49.57
2022-09-03T08:57:34.292Z,52.70
2022-09-03T09:00:15.690Z,55.81
2022-09-03T09:03:14.334Z,57.32
2022-09-03T09:06:28.481Z,57.81
2022-09-03T09:09:17.273Z,54.92
2022-09-03T09:12:21.412Z,55.51
2022-09-03T09:15:01.309Z,47.94
2022-09-03T09:18:14.296Z,39.65
2022-09-03T09:21:18.988Z,37.00
2022-09-03T09:24:18.277Z,35.78
2022-09-03T09:27:18.312Z,34.70
2022-09-03T09:30:08.304Z,35.85
2022-09-03T09:32:48.391Z,37.31
2022-09-03T09:35:35.287Z,35.26
2022-09-03T09:38:16.608Z,32.58
2022-09-03T09:41:06.288Z,35.06
2022-09-03T09:43:48.119Z,31.55
2022-09-03T09:46:50.288Z,30.94
2022-09-03T09:49:52.449Z,31.08
2022-09-03T09:52:40.274Z,36.35
2022-09-03T09:55:26.721Z,36.27
2022-09-03T09:58:17.268Z,33.99
2022-09-03T10:01:20.281Z,32.18
2022-09-03T10:04:21.211Z,30.40
2022-09-03T10:07:10.216Z,31.69
2022-09-03T10:10:14.250Z,41.09
2022-09-03T10:13:09.578Z,43.29
2022-09-03T10:16:05.318Z,47.91
2022-09-03T10:19:01.260Z,49.91
2022-09-03T10:21:53.786Z,47.73
2022-09-03T10:25:03.265Z,49.58
2022-09-03T10:27:53.254Z,46.52
2022-09-03T10:30:33.338Z,45.45
2022-09-03T10:33:34.298Z,41.06
2022-09-03T10:36:30.220Z,39.76
2022-09-03T10:39:47.734Z,38.71
2022-09-03T10:43:06.277Z,37.94
2022-09-03T10:45:59.217Z,38.84
2022-09-03T10:48:42.664Z,42.24
2022-09-03T10:51:36.229Z,45.70
2022-09-03T10:54:39.186Z,46.96
2022-09-03T10:57:42.214Z,46.28
2022-09-03T11:00:24.429Z,48.23
2022-09-03T11:03:32.192Z,50.07
2022-09-03T11:06:49.183Z,54.32
2022-09-03T11:09:32.172Z,54.26
2022-09-03T11:12:28.219Z,52.64
2022-09-03T11:15:31.528Z,43.71
2022-09-03T11:18:32.182Z,37.64
2022-09-03T11:21:16.808Z,40.76
2022-09-03T11:24:08.177Z,46.34
2022-09-03T11:27:03.306Z,49.93
2022-09-03T11:30:04.198Z,53.00
2022-09-03T11:32:57.194Z,56.22
2022-09-03T11:35:41.086Z,57.03
2022-09-03T11:38:31.173Z,56.84
2022-09-03T11:41:37.173Z,56.74
2022-09-03T11:44:19.083Z,56.99
2022-09-03T11:47:13.144Z,57.15
2022-09-03T11:50:11.168Z,59.11
2022-09-03T11:52:51.983Z,58.18
2022-09-03T11:55:56.201Z,56.89
2022-09-03T11:58:40.706Z,57.20
2022-09-03T12:01:27.167Z,57.85
2022-09-03T12:04:11.290Z,58.31
2022-09-03T12:07:10.120Z,58.85
2022-09-03T12:10:11.314Z,59.75
2022-09-03T12:13:17.158Z,60.76
2022-09-03T12:16:25.142Z,61.74
2022-09-03T12:19:20.122Z,62.65
2022-09-03T12:22:11.122Z,62.57
2022-09-03T12:25:05.089Z,61.14
2022-09-03T12:27:53.126Z,61.50
2022-09-03T12:30:33.300Z,60.29
2022-09-03T12:33:24.121Z,60.56
2022-09-03T12:36:12.092Z,62.06
2022-09-03T12:39:14.510Z,61.86
2022-09-03T12:42:18.090Z,62.85
2022-09-03T12:45:22.086Z,61.86
2022-09-03T12:48:09.117Z,62.88
2022-09-03T12:54:13.292Z,62.90
2022-09-03T12:57:07.080Z,62.30
2022-09-03T12:59:47.175Z,63.52
2022-09-03T13:02:43.051Z,62.87
2022-09-03T13:05:34.060Z,62.43
2022-09-03T13:08:21.740Z,62.45
2022-09-03T13:11:12.086Z,61.97
2022-09-03T13:14:06.808Z,61.86
2022-09-03T13:17:01.155Z,62.36
2022-09-03T13:19:55.081Z,63.79
2022-09-03T13:22:57.061Z,62.95
2022-09-03T13:26:06.992Z,61.78
2022-09-03T13:29:08.716Z,62.58
2022-09-03T13:32:06.136Z,60.92
2022-09-03T13:34:55.850Z,60.05
2022-09-03T13:37:59.021Z,59.99
2022-09-03T13:40:50.334Z,59.51
2022-09-03T13:43:51.029Z,59.64
2022-09-03T13:46:48.044Z,60.57
2022-09-03T13:50:21.888Z,61.35
2022-09-03T13:53:29.054Z,62.84
2022-09-03T13:56:34.011Z,63.27
2022-09-03T13:59:26.186Z,64.46
2022-09-03T14:02:34.065Z,65.24
2022-09-03T14:05:32.993Z,65.25
2022-09-03T14:08:35.496Z,65.37
2022-09-03T14:11:32.984Z,66.71
2022-09-03T14:14:54.005Z,67.89
2022-09-03T14:17:47.114Z,68.16
2022-09-03T14:20:45.977Z,68.24
2022-09-03T14:23:45.080Z,67.93
2022-09-03T14:26:39.945Z,67.47
2022-09-03T14:29:26.990Z,66.81
2022-09-03T14:32:32.067Z,66.26
2022-09-03T14:35:33.019Z,65.33
2022-09-03T14:38:48.003Z,65.55
2022-09-03T14:41:50.555Z,66.87
2022-09-03T14:44:49.941Z,67.22
2022-09-03T14:48:10.960Z,67.19
2022-09-03T14:50:57.957Z,68.04
2022-09-03T14:54:09.950Z,68.65
2022-09-03T14:57:13.421Z,69.34
2022-09-03T15:00:05.962Z,70.46
2022-09-03T15:03:13.921Z,71.07
2022-09-03T15:06:17.077Z,71.74
2022-09-03T15:09:37.930Z,71.23
2022-09-03T15:28:34.526Z,73.25
2022-09-03T15:31:23.100Z,73.05
2022-09-03T15:34:46.240Z,73.20
2022-09-03T15:37:32.793Z,73.82
2022-09-03T15:40:55.172Z,73.32
2022-09-03T15:43:35.677Z,73.23
2022-09-03T15:46:47.230Z,73.54
2022-09-03T15:49:32.047Z,74.11
2022-09-03T15:52:41.204Z,74.25
2022-09-03T15:55:49.186Z,74.12
2022-09-03T15:58:59.170Z,74.70
2022-09-03T16:01:59.558Z,75.27
2022-09-03T16:04:54.174Z,75.64
2022-09-03T16:07:44.158Z,76.52
2022-09-03T16:10:36.182Z,76.90
2022-09-03T16:13:51.172Z,77.77
2022-09-03T16:16:57.161Z,78.15
2022-09-03T16:19:43.550Z,78.01
2022-09-03T16:22:36.204Z,77.95
2022-09-03T16:25:58.167Z,77.94
2022-09-03T16:29:19.009Z,77.99
2022-09-03T16:32:23.158Z,78.19
2022-09-03T16:35:27.856Z,78.51
2022-09-03T16:38:32.145Z,78.73
2022-09-03T16:41:30.864Z,79.78
2022-09-03T16:44:21.113Z,79.70
2022-09-03T16:47:25.129Z,79.36
2022-09-03T16:50:43.120Z,79.58
2022-09-03T16:53:50.185Z,80.01
2022-09-03T16:57:06.134Z,79.94
2022-09-03T17:00:02.680Z,79.85
2022-09-03T17:03:10.101Z,79.68
2022-09-03T17:06:15.080Z,80.29
2022-09-03T17:09:11.108Z,80.60
2022-09-03T17:11:54.382Z,79.82
2022-09-03T17:15:01.113Z,80.88
2022-09-03T17:18:36.049Z,80.89
2022-09-03T17:22:09.057Z,80.79
2022-09-03T17:25:22.102Z,80.78
2022-09-03T17:28:24.883Z,79.95
2022-09-03T17:31:11.152Z,79.75
2022-09-03T17:34:09.040Z,79.40
2022-09-03T17:37:19.053Z,79.91
2022-09-03T17:40:40.212Z,80.12
2022-09-03T17:43:20.136Z,80.45
2022-09-03T17:46:22.644Z,80.52
2022-09-03T17:49:16.095Z,80.31
2022-09-03T17:52:07.486Z,80.43
2022-09-03T17:54:59.049Z,80.44
2022-09-03T17:57:46.928Z,80.70
2022-09-03T18:00:52.066Z,80.20
2022-09-03T18:03:45.916Z,80.34
2022-09-03T18:07:10.042Z,80.25
2022-09-03T18:10:32.052Z,81.13
2022-09-03T18:13:23.639Z,80.93
2022-09-03T18:16:22.090Z,80.84
2022-09-03T18:19:31.273Z,80.69
2022-09-03T18:22:36.017Z,80.97
2022-09-03T18:25:38.912Z,80.50
2022-09-03T18:28:51.026Z,80.22
2022-09-03T18:31:49.835Z,80.09
2022-09-03T18:35:04.004Z,80.04
2022-09-03T18:38:02.650Z,79.60
2022-09-03T18:41:50.036Z,79.26
2022-09-03T18:45:24.339Z,78.81
2022-09-03T18:48:37.990Z,78.30
2022-09-03T18:51:52.992Z,78.45
2022-09-03T18:55:08.267Z,78.86
2022-09-03T18:58:12.601Z,78.65
2022-09-03T19:01:30.069Z,78.17
2022-09-03T19:04:57.844Z,77.90
2022-09-03T19:08:12.981Z,77.54
2022-09-03T19:11:24.683Z,77.96
2022-09-03T19:14:40.957Z,77.86
2022-09-03T19:18:10.953Z,77.88
2022-09-03T19:21:46.741Z,77.99
2022-09-03T19:24:54.973Z,77.40
2022-09-03T19:28:45.933Z,77.93
2022-09-03T19:32:12.934Z,77.33
2022-09-03T19:35:41.945Z,77.16
2022-09-03T19:38:50.131Z,77.79
2022-09-03T19:42:09.909Z,77.22
2022-09-03T19:45:30.508Z,76.92
2022-09-03T19:49:17.898Z,76.45
2022-09-03T19:52:41.002Z,76.00
2022-09-03T19:55:46.833Z,76.16
2022-09-03T19:58:56.897Z,76.17
2022-09-03T20:02:07.746Z,75.15
2022-09-03T21:10:38.789Z,72.02
2022-09-03T21:13:40.370Z,72.72
2022-09-03T21:16:51.827Z,72.85
2022-09-03T21:19:56.778Z,72.70
2022-09-03T21:22:52.809Z,72.20
2022-09-03T21:25:45.795Z,71.71
2022-09-03T21:29:06.938Z,71.83
2022-09-03T21:32:16.837Z,71.26
2022-09-03T21:35:08.956Z,71.39
2022-09-03T21:38:18.787Z,71.96
2022-09-03T21:41:15.756Z,71.32
2022-09-03T21:44:10.752Z,71.40
2022-09-03T21:47:07.779Z,71.95
2022-09-03T21:49:57.410Z,72.10
2022-09-03T21:53:23.762Z,71.94
2022-09-03T21:56:37.154Z,72.21
2022-09-03T21:59:52.782Z,72.57
2022-09-03T22:02:42.868Z,72.82
2022-09-03T22:05:23.890Z,73.05
2022-09-03T22:08:18.751Z,73.05
2022-09-03T22:11:29.748Z,72.41
2022-09-03T22:14:16.913Z,73.28
2022-09-03T22:17:21.757Z,72.75
2022-09-03T22:20:03.669Z,73.01
2022-09-03T22:23:03.722Z,73.03
2022-09-03T22:26:28.766Z,73.52
2022-09-03T22:29:16.857Z,73.56
2022-09-03T22:32:10.739Z,74.08
2022-09-03T22:35:06.738Z,74.12
2022-09-03T22:38:19.013Z,74.32
2022-09-03T22:41:24.737Z,74.13
2022-09-03T22:44:33.669Z,74.68
2022-09-03T22:47:39.736Z,74.45
2022-09-03T22:50:20.705Z,75.10
2022-09-03T22:53:44.716Z,75.32
2022-09-03T22:56:32.727Z,75.75
2022-09-03T22:59:51.714Z,75.43
2022-09-03T23:02:32.868Z,75.96
2022-09-03T23:05:50.703Z,76.01
2022-09-03T23:08:45.419Z,76.07
2022-09-03T23:11:50.715Z,75.77
2022-09-03T23:14:43.653Z,76.33
2022-09-03T23:20:31.707Z,75.50
2022-09-03T23:23:22.848Z,76.01
2022-09-03T23:26:29.665Z,76.48
2022-09-03T23:29:26.215Z,76.56
2022-09-03T23:32:12.707Z,76.41
2022-09-03T23:34:59.689Z,76.35
2022-09-03T23:38:01.683Z,76.36
2022-09-03T23:40:53.800Z,76.82
2022-09-03T23:44:12.651Z,76.50
2022-09-03T23:47:31.633Z,77.30
2022-09-03T23:50:32.629Z,77.29
2022-09-03T23:53:37.763Z,77.89
2022-09-03T23:56:43.586Z,78.14
2022-09-03T23:59:34.658Z,78.23
